Naracoorte, Australia
Current Conditions -  °F | °C
As of 5:00 PM on Tuesday 21 Oct 2014 (Local Time) from YMTG Reporting Station
Clear Clear  
Wind Chill: 84°   Ceiling: Unl
Heat Index: 84°   Visibility: 6mi
Dew Point: 43°   Wind: 10mph
Humidity: 23%   Direction: 90°E
Pressure: 30.09"   Gusts: NA
Location:  36.96°S, 140.74°E
Report Text: YMTG 210700Z AUTO 09009KT 9999 // NCD 29/06 Q1019
Loading
Personal Weather Stations






























Interactive Weather Map
Tropical Storm Tracking
New forecast layout! Learn more

10-Day Weather Forecast

Advertisements
Track Severe Weather on mobile